Terminal Aerodrome Forecast
Issued by NWS

Home | Current Version | Previous Version | Text Only | Print | Product List | Glossary On
Versions: 1 2 3 4 5 6 7 8 9 10 11 12
000
FTUS42 TJSJ 231100
TAFJPS
TAF
TJPS 231138Z 2312/2412 08004KT P6SM FEW030
     FM231500 13012KT P6SM SCT030 SCT060
     FM232330 05003KT P6SM FEW030 SCT060
      AMD NOT SKED TIL 240300=

USA.gov is the U.S. government's official web portal to all federal, state and local government web resources and services.